Terminal Aerodrome Forecast
Issued by NWS Jackson, MS

Home | Current Version | Previous Version | Text Only | Print | Product List | Glossary On
Versions: 1 2 3 4 5 6 7 8 9 10 11 12 13 14
000
FTUS44 KJAN 260520
TAFGLH
TAF
KGLH 260520Z 2606/2706 23009KT P6SM SKC
     FM260900 29008KT 6SM BR BKN007
     FM261330 35011KT P6SM FEW025
     FM270000 02009KT P6SM FEW050 SCT120 BKN200=

USA.gov is the U.S. government's official web portal to all federal, state and local government web resources and services.